Time;durP1;ratioP1;P1;durP2;ratioP2;P2;SDS_P1;SDS_P2;PMS_P1;PMS_P2;Temp;Humidity;BMP_temperature;BMP_pressure;BME280_temperature;BME280_humidity;BME280_pressure;Samples;Min_cycle;Max_cycle;Signal;HPM_P1;HPM_P2
2022/04/23 00:01:06;;;;;;;;;;;;;;;12.52;100.00;96741.63;5056089;28;19971;-65
2022/04/23 00:03:33;;;;;;;;;;;;;;;12.83;100.00;96737.13;5057936;28;19985;-65
2022/04/23 00:05:59;;;;;;;;;;;;;;;12.86;100.00;96736.50;5059424;28;20028;-65
2022/04/23 00:08:26;;;;;;;;;;;;;;;12.81;100.00;96738.53;5061712;28;19931;-65
2022/04/23 00:10:54;;;;;;;;;;;;;;;13.06;100.00;96745.91;5061214;28;20000;-65
2022/04/23 00:13:20;;;;;;;;;;;;;;;13.26;100.00;96744.63;5058113;28;19926;-65
2022/04/23 00:15:46;;;;;;;;;;;;;;;13.23;100.00;96742.56;5058230;28;19976;-64
2022/04/23 00:18:13;;;;;;;;;;;;;;;13.46;100.00;96749.47;5061216;28;19921;-65
2022/04/23 00:20:39;;;;;;;;;;;;;;;13.20;100.00;96743.19;5061651;27;19984;-65
2022/04/23 00:23:06;;;;;;;;;;;;;;;13.19;100.00;96755.00;5059261;28;19924;-64
2022/04/23 00:25:38;;;;;;;;;;;;;;;13.05;100.00;96754.28;5058109;28;19926;-65
2022/04/23 00:28:06;;;;;;;;;;;;;;;13.14;100.00;96742.53;5059970;28;19955;-65
2022/04/23 00:30:33;;;;;;;;;;;;;;;13.24;100.00;96744.16;5060426;28;19985;-64
2022/04/23 00:33:00;;;;;;;;;;;;;;;13.49;100.00;96748.84;5059907;28;19967;-65
2022/04/23 00:35:27;;;;;;;;;;;;;;;13.60;100.00;96738.63;5058039;28;19947;-64
2022/04/23 00:37:53;;;;;;;;;;;;;;;13.82;100.00;96747.41;5058130;28;19925;-65
2022/04/23 00:40:21;;;;;;;;;;;;;;;13.94;100.00;96750.25;5061132;28;19920;-65
2022/04/23 00:42:48;;;;;;;;;;;;;;;13.97;100.00;96748.84;5061075;27;19925;-65
2022/04/23 00:45:16;;;;;;;;;;;;;;;14.01;100.00;96750.59;5056831;28;19925;-65
2022/04/23 00:47:42;;;;;;;;;;;;;;;14.08;100.00;96744.75;5057691;28;19981;-65
2022/04/23 00:50:09;;;;;;;;;;;;;;;14.13;100.00;96743.81;5059947;28;19976;-64
2022/04/23 00:52:35;;;;;;;;;;;;;;;14.11;100.00;96740.66;5061104;28;19995;-64
2022/04/23 00:55:02;;;;;;;;;;;;;;;13.99;100.00;96741.25;5059183;28;19933;-65
2022/04/23 00:57:28;;;;;;;;;;;;;;;13.61;100.00;96740.22;5057510;28;20029;-65
2022/04/23 00:59:54;;;;;;;;;;;;;;;13.56;100.00;96741.13;5057899;28;19993;-64
2022/04/23 01:02:22;;;;;;;;;;;;;;;13.48;100.00;96736.53;5060589;28;19925;-65
2022/04/23 01:04:49;;;;;;;;;;;;;;;13.67;100.00;96738.97;5060766;28;19928;-64
2022/04/23 01:07:15;;;;;;;;;;;;;;;13.74;100.00;96740.09;5049116;28;19932;-65
2022/04/23 01:09:44;;;;;;;;;;;;;;;13.78;100.00;96737.59;5057398;28;19929;-65
2022/04/23 01:12:10;;;;;;;;;;;;;;;13.67;100.00;96738.97;5059424;28;19946;-64
2022/04/23 01:14:51;;;;;;;;;;;;;;;13.58;100.00;96741.63;5060556;28;19984;-64
2022/04/23 01:17:18;;;;;;;;;;;;;;;13.56;100.00;96735.78;5049178;28;19929;-64
2022/04/23 01:19:45;;;;;;;;;;;;;;;13.49;100.00;96727.41;5057140;28;19984;-65
2022/04/23 01:22:13;;;;;;;;;;;;;;;13.63;100.00;96729.97;5060084;28;19931;-66
2022/04/23 01:24:39;;;;;;;;;;;;;;;13.84;100.00;96733.66;5060737;28;19920;-64
2022/04/23 01:27:06;;;;;;;;;;;;;;;13.97;100.00;96733.53;5058236;28;19925;-65
2022/04/23 01:29:32;;;;;;;;;;;;;;;14.06;100.00;96730.84;5057037;28;19996;-64
2022/04/23 01:31:58;;;;;;;;;;;;;;;14.13;100.00;96730.41;5058046;28;19921;-65
2022/04/23 01:34:25;;;;;;;;;;;;;;;14.16;100.00;96735.94;5060276;28;20095;-65
2022/04/23 01:36:51;;;;;;;;;;;;;;;14.13;100.00;96741.94;5060114;28;19964;-65
2022/04/23 01:39:18;;;;;;;;;;;;;;;14.15;100.00;96736.25;5056810;28;19993;-64
2022/04/23 01:41:47;;;;;;;;;;;;;;;14.02;100.00;96736.06;5056825;28;19984;-65
2022/04/23 01:44:13;;;;;;;;;;;;;;;13.84;100.00;96736.34;5059782;28;19929;-65
2022/04/23 01:46:39;;;;;;;;;;;;;;;13.80;100.00;96736.16;5060279;28;19920;-65
2022/04/23 01:49:06;;;;;;;;;;;;;;;13.78;100.00;96740.25;5057869;28;19932;-65
2022/04/23 01:51:32;;;;;;;;;;;;;;;13.46;100.00;96741.44;5056580;28;20024;-65
2022/04/23 01:53:58;;;;;;;;;;;;;;;13.22;100.00;96749.03;5057597;28;19934;-66
2022/04/23 01:56:26;;;;;;;;;;;;;;;13.29;100.00;96742.13;5060063;28;19927;-65
2022/04/23 01:58:52;;;;;;;;;;;;;;;13.32;100.00;96748.78;5059575;28;20377;-65
2022/04/23 02:01:18;;;;;;;;;;;;;;;13.10;100.00;96748.81;5056294;28;19927;-65
2022/04/23 02:03:45;;;;;;;;;;;;;;;13.27;100.00;96746.22;5056275;28;19931;-65
2022/04/23 02:06:12;;;;;;;;;;;;;;;13.46;100.00;96754.84;5059269;28;19925;-65
2022/04/23 02:08:38;;;;;;;;;;;;;;;13.58;100.00;96747.00;5059747;28;19924;-65
2022/04/23 02:11:04;;;;;;;;;;;;;;;13.59;100.00;96740.53;5057585;28;19931;-65
2022/04/23 02:13:34;;;;;;;;;;;;;;;13.55;100.00;96753.00;5056059;28;19931;-66
2022/04/23 02:16:03;;;;;;;;;;;;;;;13.33;100.00;96742.31;5057421;28;19926;-66
2022/04/23 02:18:30;;;;;;;;;;;;;;;13.00;100.00;96747.94;5059571;28;19940;-65
2022/04/23 02:20:56;;;;;;;;;;;;;;;12.96;100.00;96743.50;5058775;27;19975;-65
2022/04/23 02:23:23;;;;;;;;;;;;;;;12.81;100.00;96747.31;5056095;28;20002;-65
2022/04/23 02:25:49;;;;;;;;;;;;;;;13.15;100.00;96746.00;5054983;28;19921;-65
2022/04/23 02:28:15;;;;;;;;;;;;;;;13.38;100.00;96742.97;5047978;28;19989;-64
2022/04/23 02:30:43;;;;;;;;;;;;;;;13.27;100.00;96738.19;5056016;28;19964;-65
2022/04/23 02:33:09;;;;;;;;;;;;;;;12.96;100.00;96746.19;5058460;28;20599;-64
2022/04/23 02:35:36;;;;;;;;;;;;;;;13.06;100.00;96737.09;5059435;28;19925;-65
2022/04/23 02:38:02;;;;;;;;;;;;;;;13.29;100.00;96739.47;5057591;28;19928;-64
2022/04/23 02:40:29;;;;;;;;;;;;;;;13.41;100.00;96733.50;5055773;28;19925;-65
2022/04/23 02:42:56;;;;;;;;;;;;;;;13.47;100.00;96732.28;5055680;28;19977;-64
2022/04/23 02:45:23;;;;;;;;;;;;;;;13.59;100.00;96735.16;5059413;28;19984;-65
2022/04/23 02:47:51;;;;;;;;;;;;;;;13.60;100.00;96728.69;5059161;28;19944;-65
2022/04/23 02:50:25;;;;;;;;;;;;;;;13.64;100.00;96732.34;5047426;28;19921;-64
2022/04/23 02:52:51;;;;;;;;;;;;;;;13.41;100.00;96731.63;5055735;28;19925;-65
2022/04/23 02:55:17;;;;;;;;;;;;;;;13.49;100.00;96728.16;5059225;28;19925;-65
2022/04/23 02:57:44;;;;;;;;;;;;;;;13.65;100.00;96731.22;5059245;28;19921;-66
2022/04/23 03:00:11;;;;;;;;;;;;;;;13.69;100.00;96734.88;5056496;28;19932;-65
2022/04/23 03:02:38;;;;;;;;;;;;;;;13.33;100.00;96735.06;5055056;28;19988;-65
2022/04/23 03:05:07;;;;;;;;;;;;;;;13.17;100.00;96736.56;5057483;28;19921;-65
2022/04/23 03:07:35;;;;;;;;;;;;;;;13.12;100.00;96743.94;5059187;28;19931;-65
2022/04/23 03:10:01;;;;;;;;;;;;;;;13.04;100.00;96744.63;5057369;28;19948;-65
2022/04/23 03:12:27;;;;;;;;;;;;;;;13.20;100.00;96751.22;5059778;28;19992;-65
2022/04/23 03:14:54;;;;;;;;;;;;;;;13.28;100.00;96742.44;5058172;28;19925;-65
2022/04/23 03:17:20;;;;;;;;;;;;;;;13.57;100.00;96745.41;5055613;28;20011;-65
2022/04/23 03:19:46;;;;;;;;;;;;;;;13.70;100.00;96744.53;5055369;28;19925;-65
2022/04/23 03:22:14;;;;;;;;;;;;;;;13.85;100.00;96744.09;5058564;28;19925;-66
2022/04/23 03:24:40;;;;;;;;;;;;;;;13.66;100.00;96748.91;5059023;28;19929;-64
2022/04/23 03:27:07;;;;;;;;;;;;;;;13.40;100.00;96745.34;5056474;28;19924;-65
2022/04/23 03:29:34;;;;;;;;;;;;;;;13.54;100.00;96751.41;5054460;28;19925;-66
2022/04/23 03:32:00;;;;;;;;;;;;;;;13.62;100.00;96750.63;5056630;28;19925;-64
2022/04/23 03:34:26;;;;;;;;;;;;;;;13.68;100.00;96752.06;5058781;28;19952;-65
2022/04/23 03:36:53;;;;;;;;;;;;;;;13.43;100.00;96750.09;5060952;28;19992;-64
2022/04/23 03:39:21;;;;;;;;;;;;;;;12.83;100.00;96763.91;5059010;28;19921;-65
2022/04/23 03:41:47;;;;;;;;;;;;;;;13.11;100.00;96753.88;5058928;28;19925;-65
2022/04/23 03:44:13;;;;;;;;;;;;;;;13.35;100.00;96753.50;5058896;28;19925;-65
2022/04/23 03:46:40;;;;;;;;;;;;;;;13.32;100.00;96759.50;5058683;28;19921;-65
2022/04/23 03:49:07;;;;;;;;;;;;;;;12.73;100.00;96750.75;5059786;28;19931;-65
2022/04/23 03:51:34;;;;;;;;;;;;;;;12.95;100.00;96745.38;5062264;28;19925;-65
2022/04/23 03:54:00;;;;;;;;;;;;;;;13.01;100.00;96748.72;5060453;28;19925;-64
2022/04/23 03:56:28;;;;;;;;;;;;;;;13.20;100.00;96745.88;5058802;28;19921;-65
2022/04/23 03:58:55;;;;;;;;;;;;;;;13.31;100.00;96741.81;5059073;28;19921;-64
2022/04/23 04:01:21;;;;;;;;;;;;;;;13.42;100.00;96748.50;5061668;27;19924;-64
2022/04/23 04:03:48;;;;;;;;;;;;;;;13.35;100.00;96746.25;5062126;28;20622;-64
2022/04/23 04:06:14;;;;;;;;;;;;;;;13.44;100.00;96751.66;5058696;28;19964;-65
2022/04/23 04:08:40;;;;;;;;;;;;;;;13.37;100.00;96751.31;5058616;28;19925;-65
2022/04/23 04:11:07;;;;;;;;;;;;;;;13.27;100.00;96748.91;5060577;28;19932;-64
2022/04/23 04:13:35;;;;;;;;;;;;;;;13.38;100.00;96752.91;5063615;28;19959;-65
2022/04/23 04:16:01;;;;;;;;;;;;;;;13.45;100.00;96753.25;5059691;28;19925;-65
2022/04/23 04:18:27;;;;;;;;;;;;;;;13.26;100.00;96760.72;5060924;28;19988;-65
2022/04/23 04:20:55;;;;;;;;;;;;;;;13.32;100.00;96756.81;5060111;28;19932;-65
2022/04/23 04:23:23;;;;;;;;;;;;;;;13.51;100.00;96765.44;5057457;28;20381;-65
2022/04/23 04:25:49;;;;;;;;;;;;;;;13.49;100.00;96759.59;5058181;28;20524;-65
2022/04/23 04:28:16;;;;;;;;;;;;;;;13.11;100.00;96756.56;5061681;28;19996;-65
2022/04/23 04:33:27;;;;;;;;;;;;;;;12.76;100.00;96757.38;5051735;28;19932;-64
2022/04/23 04:35:54;;;;;;;;;;;;;;;12.86;100.00;96747.22;5058116;28;19925;-65
2022/04/23 04:38:20;;;;;;;;;;;;;;;12.96;100.00;96746.97;5061473;28;19992;-64
2022/04/23 04:40:47;;;;;;;;;;;;;;;12.94;100.00;96743.78;5061547;28;19931;-64
2022/04/23 04:43:13;;;;;;;;;;;;;;;13.01;100.00;96748.72;5052980;28;19946;-64
2022/04/23 04:45:39;;;;;;;;;;;;;;;12.53;100.00;96751.25;5061233;28;19981;-64
2022/04/23 04:48:07;;;;;;;;;;;;;;;12.63;100.00;96752.88;5058490;28;20434;-64
2022/04/23 04:50:33;;;;;;;;;;;;;;;12.72;100.00;96746.47;5057843;28;19939;-64
2022/04/23 04:53:00;;;;;;;;;;;;;;;12.77;100.00;96754.41;5058945;28;19988;-65
2022/04/23 04:55:27;;;;;;;;;;;;;;;12.62;100.00;96752.09;5061224;28;19952;-65
2022/04/23 04:57:53;;;;;;;;;;;;;;;12.83;100.00;96753.19;5059736;28;19924;-65
2022/04/23 05:00:20;;;;;;;;;;;;;;;12.76;100.00;96758.19;5057635;28;19950;-65
2022/04/23 05:02:46;;;;;;;;;;;;;;;12.53;100.00;96758.47;5057266;28;19932;-65
2022/04/23 05:05:14;;;;;;;;;;;;;;;12.58;100.00;96756.47;5060632;28;19931;-66
2022/04/23 05:07:40;;;;;;;;;;;;;;;12.85;100.00;96752.88;5061214;28;20004;-65
2022/04/23 05:10:07;;;;;;;;;;;;;;;12.65;100.00;96756.84;5058605;28;19965;-65
2022/04/23 05:12:33;;;;;;;;;;;;;;;12.41;100.00;96764.34;5062609;28;19960;-65
2022/04/23 05:14:59;;;;;;;;;;;;;;;12.37;100.00;96763.38;5059420;28;19925;-65
2022/04/23 05:17:26;;;;;;;;;;;;;;;12.64;100.00;96763.28;5057230;28;19931;-65
2022/04/23 05:19:52;;;;;;;;;;;;;;;12.78;100.00;96769.38;5057372;28;19925;-64
2022/04/23 05:22:20;;;;;;;;;;;;;;;12.86;100.00;96762.50;5060865;28;20000;-65
2022/04/23 05:24:46;;;;;;;;;;;;;;;12.92;100.00;96762.09;5060677;28;20457;-65
2022/04/23 05:27:12;;;;;;;;;;;;;;;12.83;100.00;96753.19;5057805;28;19925;-64
2022/04/23 05:29:38;;;;;;;;;;;;;;;12.88;100.00;96760.31;5057187;28;19950;-64
2022/04/23 05:32:05;;;;;;;;;;;;;;;12.81;100.00;96755.38;5058941;28;19921;-64
2022/04/23 05:34:34;;;;;;;;;;;;;;;13.03;100.00;96751.88;5060474;28;19920;-65
2022/04/23 05:37:00;;;;;;;;;;;;;;;12.87;100.00;96759.50;5059187;28;19983;-64
2022/04/23 05:39:28;;;;;;;;;;;;;;;12.94;100.00;96759.09;5057168;28;19959;-65
2022/04/23 05:41:54;;;;;;;;;;;;;;;12.98;100.00;96757.38;5057259;28;19992;-65
2022/04/23 05:44:21;;;;;;;;;;;;;;;12.80;100.00;96766.41;5060636;28;19988;-65
2022/04/23 05:46:47;;;;;;;;;;;;;;;13.00;100.00;96761.34;5060539;28;19925;-65
2022/04/23 05:49:13;;;;;;;;;;;;;;;13.17;100.00;96762.56;5057326;28;19932;-64
2022/04/23 05:51:40;;;;;;;;;;;;;;;13.27;100.00;96756.97;5056744;28;20511;-65
2022/04/23 05:54:06;;;;;;;;;;;;;;;13.35;100.00;96758.88;5058589;28;19929;-65
2022/04/23 05:56:34;;;;;;;;;;;;;;;13.09;100.00;96760.63;5060170;28;20045;-64
2022/04/23 05:59:00;;;;;;;;;;;;;;;13.08;100.00;96759.03;5058883;28;19996;-64
2022/04/23 06:01:26;;;;;;;;;;;;;;;13.09;100.00;96764.09;5056382;28;20008;-65
2022/04/23 06:03:53;;;;;;;;;;;;;;;13.05;100.00;96762.31;5056736;28;19967;-64
2022/04/23 06:06:20;;;;;;;;;;;;;;;12.94;100.00;96770.59;5060105;28;19931;-65
2022/04/23 06:08:46;;;;;;;;;;;;;;;12.99;100.00;96761.66;5059972;28;19946;-64
2022/04/23 06:11:13;;;;;;;;;;;;;;;13.03;100.00;96772.56;5056887;28;19993;-65
2022/04/23 06:13:41;;;;;;;;;;;;;;;12.73;100.00;96769.50;5056296;28;19921;-65
2022/04/23 06:16:07;;;;;;;;;;;;;;;12.61;100.00;96766.56;5058267;28;19984;-65
2022/04/23 06:18:33;;;;;;;;;;;;;;;12.52;100.00;96765.72;5060058;28;19921;-65
2022/04/23 06:20:59;;;;;;;;;;;;;;;12.56;100.00;96768.59;5058502;28;19988;-64
2022/04/23 06:23:26;;;;;;;;;;;;;;;12.34;100.00;96761.31;5056300;28;19969;-65
2022/04/23 06:25:53;;;;;;;;;;;;;;;12.43;100.00;96765.66;5056284;28;20335;-65
2022/04/23 06:28:19;;;;;;;;;;;;;;;12.63;100.00;96758.22;5059740;28;19925;-66
2022/04/23 06:30:47;;;;;;;;;;;;;;;12.41;100.00;96759.00;5059725;28;19964;-65
2022/04/23 06:33:14;;;;;;;;;;;;;;;12.49;100.00;96766.31;5056091;28;19936;-65
2022/04/23 06:35:41;;;;;;;;;;;;;;;12.65;100.00;96764.88;5056179;28;19925;-65
2022/04/23 06:38:07;;;;;;;;;;;;;;;12.79;100.00;96764.81;5058001;28;20300;-65
2022/04/23 06:40:34;;;;;;;;;;;;;;;12.91;100.00;96773.88;5059446;27;19956;-65
2022/04/23 06:43:01;;;;;;;;;;;;;;;12.81;100.00;96778.72;5057862;28;19947;-64
2022/04/23 06:45:27;;;;;;;;;;;;;;;12.53;100.00;96772.66;5056242;28;19925;-65
2022/04/23 06:48:04;;;;;;;;;;;;;;;12.72;100.00;96773.28;5056223;28;19929;-65
2022/04/23 06:50:31;;;;;;;;;;;;;;;12.77;100.00;96773.16;5059458;28;19932;-64
2022/04/23 06:52:57;;;;;;;;;;;;;;;12.78;100.00;96774.72;5058384;28;19925;-65
2022/04/23 06:55:24;;;;;;;;;;;;;;;12.71;100.00;96774.38;5054917;28;19925;-66
2022/04/23 06:57:50;;;;;;;;;;;;;;;12.59;100.00;96773.34;5055765;28;19995;-65
2022/04/23 07:00:16;;;;;;;;;;;;;;;12.54;100.00;96781.47;5047671;28;19932;-65
2022/04/23 07:02:43;;;;;;;;;;;;;;;12.38;100.00;96779.13;5055408;28;19925;-65
2022/04/23 07:05:10;;;;;;;;;;;;;;;12.23;100.00;96778.66;5058046;28;20039;-65
2022/04/23 07:07:37;;;;;;;;;;;;;;;12.17;100.00;96779.88;5059135;28;20473;-65
2022/04/23 07:10:03;;;;;;;;;;;;;;;12.14;100.00;96775.91;5056945;28;20016;-64
2022/04/23 07:12:30;;;;;;;;;;;;;;;12.29;100.00;96775.59;5059930;28;19946;-64
2022/04/23 07:14:56;;;;;;;;;;;;;;;12.37;100.00;96787.47;5058382;28;19997;-65
2022/04/23 07:17:24;;;;;;;;;;;;;;;12.66;100.00;96779.84;5055399;28;19936;-65
2022/04/23 07:19:50;;;;;;;;;;;;;;;12.51;100.00;96785.53;5055441;28;19960;-64
2022/04/23 07:22:18;;;;;;;;;;;;;;;12.30;100.00;96784.41;5047429;28;19925;-64
2022/04/23 07:24:44;;;;;;;;;;;;;;;12.19;100.00;96783.81;5055368;28;19928;-64
2022/04/23 07:27:11;;;;;;;;;;;;;;;12.15;100.00;96790.91;5057792;28;19982;-65
2022/04/23 07:29:37;;;;;;;;;;;;;;;12.12;100.00;96783.47;5057600;28;19925;-65
2022/04/23 07:32:04;;;;;;;;;;;;;;;12.06;100.00;96782.00;5056945;28;20050;-66
2022/04/23 07:37:30;;;;;;;;;;;;;;;12.33;100.00;96794.53;5058330;28;19921;-65
2022/04/23 07:39:58;;;;;;;;;;;;;;;12.24;100.00;96783.75;5057694;28;19928;-64
2022/04/23 07:42:24;;;;;;;;;;;;;;;12.14;100.00;96783.94;5054382;28;19972;-64
2022/04/23 07:44:51;;;;;;;;;;;;;;;12.13;100.00;96789.63;5054944;28;19930;-65
2022/04/23 07:47:18;;;;;;;;;;;;;;;12.23;100.00;96773.31;5047046;28;19999;-66
2022/04/23 07:49:44;;;;;;;;;;;;;;;12.35;100.00;96771.69;5055170;28;19926;-65
2022/04/23 07:52:11;;;;;;;;;;;;;;;12.39;100.00;96779.94;5057764;28;19932;-65
2022/04/23 07:54:38;;;;;;;;;;;;;;;12.40;100.00;96771.59;5058545;28;19984;-65
2022/04/23 07:57:07;;;;;;;;;;;;;;;12.20;100.00;96765.88;5056754;28;19925;-65
2022/04/23 07:59:34;;;;;;;;;;;;;;;12.17;100.00;96766.50;5055080;28;20000;-66
2022/04/23 08:02:02;;;;;;;;;;;;;;;12.24;100.00;96759.66;5055862;28;19929;-64
2022/04/23 08:04:28;;;;;;;;;;;;;;;12.29;100.00;96761.41;5058480;28;19946;-66
2022/04/23 08:06:54;;;;;;;;;;;;;;;12.38;100.00;96759.59;5057841;28;19980;-66
2022/04/23 08:09:21;;;;;;;;;;;;;;;12.47;100.00;96760.50;5054941;28;19925;-66
2022/04/23 08:11:47;;;;;;;;;;;;;;;12.48;100.00;96758.56;5054777;28;20416;-65
2022/04/23 08:14:15;;;;;;;;;;;;;;;12.68;100.00;96756.25;5057650;28;20040;-65
2022/04/23 08:16:41;;;;;;;;;;;;;;;12.48;100.00;96754.03;5058407;28;19936;-66
2022/04/23 08:19:08;;;;;;;;;;;;;;;12.48;100.00;96748.66;5055970;28;20581;-65
2022/04/23 08:21:35;;;;;;;;;;;;;;;12.61;100.00;96750.50;5054920;28;20016;-65
2022/04/23 08:24:01;;;;;;;;;;;;;;;12.80;100.00;96750.31;5058543;28;19956;-66
2022/04/23 08:26:27;;;;;;;;;;;;;;;12.57;100.00;96749.53;5061457;27;19992;-65
2022/04/23 08:31:39;;;;;;;;;;;;;;;12.94;100.00;96743.00;5057811;28;20018;-64
2022/04/23 08:34:05;;;;;;;;;;;;;;;13.02;100.00;96749.53;5059728;28;19989;-64
2022/04/23 08:36:35;;;;;;;;;;;;;;;13.18;100.00;96753.44;5061163;28;19943;-65
2022/04/23 08:39:04;;;;;;;;;;;;;;;13.17;100.00;96746.47;5059384;28;19928;-64
2022/04/23 08:41:31;;;;;;;;;;;;;;;13.19;100.00;96739.72;5057417;28;20014;-65
2022/04/23 08:43:58;;;;;;;;;;;;;;;13.21;100.00;96742.09;5057277;28;20435;-65
2022/04/23 08:46:25;;;;;;;;;;;;;;;13.22;100.00;96735.63;5057243;28;19932;-65
2022/04/23 08:48:58;;;;;;;;;;;;;;;13.10;100.00;96740.75;5057649;28;19985;-65
2022/04/23 08:54:27;;;;;;;;;;;;;;;13.22;100.00;96738.31;5050614;28;19989;-66
2022/04/23 08:56:53;;;;;;;;;;;;;;;13.16;100.00;96734.97;5057562;28;19921;-64
2022/04/23 08:59:21;;;;;;;;;;;;;;;13.16;100.00;96740.31;5060860;28;19980;-64
2022/04/23 09:01:48;;;;;;;;;;;;;;;13.25;100.00;96735.78;5060541;28;19928;-65
2022/04/23 09:04:15;;;;;;;;;;;;;;;13.24;100.00;96733.44;5057482;28;19998;-65
2022/04/23 09:06:43;;;;;;;;;;;;;;;13.23;100.00;96739.91;5057222;28;20448;-65
2022/04/23 09:09:13;;;;;;;;;;;;;;;13.17;100.00;96730.41;5059365;28;19932;-65
2022/04/23 09:11:41;;;;;;;;;;;;;;;13.16;100.00;96736.84;5060636;28;19921;-65
2022/04/23 09:25:34;;;;;;;;;;;;;;;13.25;100.00;96733.13;5049900;28;19947;-64
2022/04/23 09:28:13;;;;;;;;;;;;;;;13.47;100.00;96730.38;5058031;28;19925;-65
2022/04/23 09:30:40;;;;;;;;;;;;;;;13.34;100.00;96725.91;5060460;28;19976;-63
2022/04/23 09:33:28;;;;;;;;;;;;;;;13.25;100.00;96735.00;5057840;28;19996;-64
2022/04/23 09:35:57;;;;;;;;;;;;;;;13.44;100.00;96743.63;5056765;28;19942;-65
2022/04/23 09:38:23;;;;;;;;;;;;;;;13.34;100.00;96736.63;5059995;28;19936;-65
2022/04/23 09:40:51;;;;;;;;;;;;;;;13.28;100.00;96739.75;5060119;28;19989;-65
2022/04/23 09:43:24;;;;;;;;;;;;;;;13.22;100.00;96744.47;5044498;28;19925;-64
2022/04/23 09:45:59;;;;;;;;;;;;;;;13.20;100.00;96741.31;5059563;28;19953;-65
2022/04/23 09:48:25;;;;;;;;;;;;;;;13.23;100.00;96739.91;5049509;28;19931;-65
2022/04/23 09:50:52;;;;;;;;;;;;;;;13.31;100.00;96736.44;5056393;28;19943;-65
2022/04/23 09:56:23;;;;;;;;;;;;;;;13.51;100.00;96738.59;5048900;28;19921;-64
2022/04/23 09:58:50;;;;;;;;;;;;;;;13.45;100.00;96737.16;5056596;28;19921;-64
2022/04/23 10:01:18;;;;;;;;;;;;;;;13.54;100.00;96737.97;5059787;28;19956;-64
2022/04/23 10:03:46;;;;;;;;;;;;;;;13.59;100.00;96735.16;5059556;28;19980;-65
2022/04/23 10:06:13;;;;;;;;;;;;;;;13.69;100.00;96736.75;5056673;28;19950;-64
2022/04/23 10:08:41;;;;;;;;;;;;;;;13.64;100.00;96740.41;5056265;28;19923;-65
2022/04/23 10:11:12;;;;;;;;;;;;;;;13.80;100.00;96741.53;5058334;28;19933;-64
2022/04/23 10:13:40;;;;;;;;;;;;;;;13.87;100.00;96738.41;5060573;28;19929;-65
2022/04/23 10:16:08;;;;;;;;;;;;;;;13.86;100.00;96729.56;5058073;28;19933;-65
2022/04/23 10:18:54;;;;;;;;;;;;;;;13.88;100.00;96729.25;5059445;28;19948;-66
2022/04/23 10:21:22;;;;;;;;;;;;;;;13.91;100.00;96724.06;5051765;28;19933;-65
2022/04/23 10:23:58;;;;;;;;;;;;;;;14.01;100.00;96718.41;5051835;28;19980;-65
2022/04/23 10:26:34;;;;;;;;;;;;;;;13.98;100.00;96716.34;5048921;28;20370;-64
2022/04/23 10:29:02;;;;;;;;;;;;;;;14.14;100.00;96715.88;5056927;28;19932;-65
2022/04/23 10:31:28;;;;;;;;;;;;;;;14.11;100.00;96705.78;5059271;28;19932;-65
2022/04/23 10:33:54;;;;;;;;;;;;;;;14.36;100.00;96713.09;5058836;28;19963;-64
2022/04/23 10:36:21;;;;;;;;;;;;;;;14.24;100.00;96719.03;5055921;28;19980;-64
2022/04/23 10:38:51;;;;;;;;;;;;;;;14.38;100.00;96710.88;5055690;28;19940;-65
2022/04/23 10:41:19;;;;;;;;;;;;;;;14.25;100.00;96712.56;5047942;28;19925;-64
2022/04/23 10:43:49;;;;;;;;;;;;;;;14.39;100.00;96707.84;5054811;28;19977;-64
2022/04/23 10:46:35;;;;;;;;;;;;;;;14.37;100.00;96709.28;5054905;28;19961;-65
2022/04/23 10:49:13;;;;;;;;;;;;;;;14.55;100.00;96708.16;5056909;28;19925;-64
2022/04/23 10:51:49;;;;;;;;;;;;;;;14.56;100.00;96713.25;5058867;28;19920;-65
2022/04/23 10:54:19;;;;;;;;;;;;;;;14.46;100.00;96702.81;5055584;28;19931;-64
2022/04/23 10:56:50;;;;;;;;;;;;;;;14.64;100.00;96708.94;5055729;28;19947;-65
2022/04/23 10:59:38;;;;;;;;;;;;;;;14.44;100.00;96709.59;5059026;28;20011;-64
2022/04/23 11:02:06;;;;;;;;;;;;;;;14.44;100.00;96699.66;5056982;28;19992;-65
2022/04/23 11:04:35;;;;;;;;;;;;;;;14.59;100.00;96701.06;5055307;28;19925;-65
2022/04/23 11:12:36;;;;;;;;;;;;;;;14.87;100.00;96694.22;5054296;28;19921;-65
2022/04/23 11:15:03;;;;;;;;;;;;;;;14.81;100.00;96687.44;5057227;28;19921;-64
2022/04/23 11:17:47;;;;;;;;;;;;;;;14.89;100.00;96701.94;5054076;28;19955;-65
2022/04/23 11:20:15;;;;;;;;;;;;;;;14.98;100.00;96690.06;5058104;28;19935;-65
2022/04/23 11:22:41;;;;;;;;;;;;;;;14.79;100.00;96697.69;5058733;28;19931;-65
2022/04/23 11:25:08;;;;;;;;;;;;;;;14.86;100.00;96687.25;5056447;28;20007;-65
2022/04/23 11:27:36;;;;;;;;;;;;;;;14.98;100.00;96686.59;5055234;28;19988;-64
2022/04/23 11:30:03;;;;;;;;;;;;;;;15.02;100.00;96695.59;5056705;28;19926;-66
2022/04/23 11:32:30;;;;;;;;;;;;;;;14.96;100.00;96689.63;5058753;28;19921;-65
2022/04/23 11:34:57;;;;;;;;;;;;;;;14.97;100.00;96691.22;5057900;28;19921;-67
2022/04/23 11:37:31;;;;;;;;;;;;;;;15.15;100.00;96686.56;5055158;28;19925;-65
2022/04/23 11:40:04;;;;;;;;;;;;;;;15.19;100.00;96684.03;5055777;28;19921;-65
2022/04/23 11:42:36;;;;;;;;;;;;;;;15.24;100.00;96684.63;5053207;28;19985;-66
2022/04/23 11:45:02;;;;;;;;;;;;;;;15.02;100.00;96682.16;5056502;28;19928;-65
2022/04/23 11:47:30;;;;;;;;;;;;;;;14.91;100.00;96681.72;5058741;28;19929;-66
2022/04/23 11:50:07;;;;;;;;;;;;;;;15.17;100.00;96680.84;5057652;28;19925;-66
2022/04/23 11:52:34;;;;;;;;;;;;;;;15.24;100.00;96678.44;5055044;28;19980;-66
2022/04/23 11:55:01;;;;;;;;;;;;;;;15.33;100.00;96673.81;5056013;28;19996;-67
2022/04/23 11:57:28;;;;;;;;;;;;;;;15.34;100.00;96672.72;5059954;28;19924;-65
2022/04/23 11:59:59;;;;;;;;;;;;;;;15.22;100.00;96670.72;5061364;28;19963;-66
2022/04/23 12:02:27;;;;;;;;;;;;;;;15.17;100.00;96662.81;5057974;28;19925;-65
2022/04/23 12:04:54;;;;;;;;;;;;;;;15.09;100.00;96667.13;5058456;28;19996;-65
2022/04/23 12:07:21;;;;;;;;;;;;;;;15.12;100.00;96650.34;5061921;28;19925;-65
2022/04/23 12:09:50;;;;;;;;;;;;;;;15.17;100.00;96648.56;5061435;28;19935;-64
2022/04/23 12:12:19;;;;;;;;;;;;;;;15.19;100.00;96649.06;5060687;28;19929;-65
2022/04/23 12:14:46;;;;;;;;;;;;;;;15.07;100.00;96652.44;5061602;28;19931;-65
2022/04/23 12:17:19;;;;;;;;;;;;;;;15.07;100.00;96639.75;5058382;28;19967;-65
2022/04/23 12:19:47;;;;;;;;;;;;;;;15.21;100.00;96650.31;5058029;28;19925;-64
2022/04/23 12:22:22;;;;;;;;;;;;;;;15.21;100.00;96636.88;5060922;28;19925;-66
2022/04/23 12:24:50;;;;;;;;;;;;;;;15.30;100.00;96631.44;5061481;27;19924;-68
2022/04/23 12:27:17;;;;;;;;;;;;;;;15.35;100.00;96632.03;5058292;28;20005;-65
2022/04/23 12:40:50;;;;;;;;;;;;;;;15.81;100.00;96611.56;5061034;28;19955;-65
2022/04/23 12:43:21;;;;;;;;;;;;;;;15.92;100.00;96616.22;5057744;28;19925;-65
2022/04/23 12:45:48;;;;;;;;;;;;;;;15.95;100.00;96615.56;5057646;28;19992;-66
2022/04/23 12:48:14;;;;;;;;;;;;;;;15.79;100.00;96603.78;5060634;28;20018;-65
2022/04/23 12:50:41;;;;;;;;;;;;;;;15.82;100.00;96600.44;5061277;28;19955;-65
2022/04/23 12:53:07;;;;;;;;;;;;;;;15.55;100.00;96603.66;5058828;28;19981;-66
2022/04/23 12:55:37;;;;;;;;;;;;;;;15.25;100.00;96604.72;5057536;28;19952;-66
2022/04/23 12:58:08;;;;;;;;;;;;;;;15.64;100.00;96593.59;5058617;28;19932;-65
2022/04/23 13:00:35;;;;;;;;;;;;;;;15.63;100.00;96594.72;5060902;28;19988;-65
2022/04/23 13:03:12;;;;;;;;;;;;;;;15.85;100.00;96591.72;5059141;28;19931;-66
2022/04/23 13:05:38;;;;;;;;;;;;;;;15.76;100.00;96598.28;5057192;28;19921;-65
2022/04/23 13:10:49;;;;;;;;;;;;;;;15.58;100.00;96586.84;5060458;28;20044;-66
2022/04/23 13:13:17;;;;;;;;;;;;;;;15.66;100.00;96586.00;5057355;28;19968;-66
2022/04/23 13:15:43;;;;;;;;;;;;;;;15.61;100.00;96575.44;5057048;28;19925;-65
2022/04/23 13:18:09;;;;;;;;;;;;;;;15.64;100.00;96572.88;5059360;28;19979;-65
2022/04/23 13:20:35;;;;;;;;;;;;;;;15.83;100.00;96577.81;5060724;28;19939;-65
2022/04/23 13:23:02;;;;;;;;;;;;;;;16.07;100.00;96577.91;5059088;28;19959;-66